Time;durP1;ratioP1;P1;durP2;ratioP2;P2;SDS_P1;SDS_P2;PMS_P1;PMS_P2;Temp;Humidity;BMP_temperature;BMP_pressure;BME280_temperature;BME280_humidity;BME280_pressure;Samples;Min_cycle;Max_cycle;Signal;HPM_P1;HPM_P2
2023/06/22 00:00:53;;;;;;;16.90;15.60;;;;;;;;;;5093264;28;20447;-59
2023/06/22 00:03:20;;;;;;;19.00;17.03;;;;;;;;;;5093127;28;20446;-59
2023/06/22 00:05:47;;;;;;;18.83;17.33;;;;;;;;;;5092955;28;20451;-59
2023/06/22 00:08:14;;;;;;;17.93;16.13;;;;;;;;;;5092859;28;20489;-59
2023/06/22 00:10:43;;;;;;;17.60;16.20;;;;;;;;;;5092877;28;20443;-59
2023/06/22 00:13:10;;;;;;;17.40;15.90;;;;;;;;;;5093119;28;20538;-59
2023/06/22 00:15:38;;;;;;;17.93;16.37;;;;;;;;;;5092846;28;20868;-59
2023/06/22 00:18:05;;;;;;;19.40;17.80;;;;;;;;;;5092758;28;20483;-59
2023/06/22 00:20:32;;;;;;;18.67;17.07;;;;;;;;;;5093396;28;20454;-59
2023/06/22 00:23:00;;;;;;;18.00;16.50;;;;;;;;;;5092721;28;20447;-59
2023/06/22 00:25:27;;;;;;;17.70;16.10;;;;;;;;;;5093012;28;20455;-59
2023/06/22 00:27:55;;;;;;;19.10;17.50;;;;;;;;;;5092565;28;21093;-59
2023/06/22 00:30:22;;;;;;;16.40;15.10;;;;;;;;;;5092893;28;20446;-59
2023/06/22 00:32:49;;;;;;;17.20;15.40;;;;;;;;;;5092740;28;20488;-59
2023/06/22 00:35:16;;;;;;;16.73;15.47;;;;;;;;;;5092701;28;20538;-59
2023/06/22 00:37:43;;;;;;;17.00;15.50;;;;;;;;;;5092587;28;21054;-59
2023/06/22 00:40:11;;;;;;;19.40;17.40;;;;;;;;;;5092883;28;20876;-59
2023/06/22 00:42:39;;;;;;;18.10;16.57;;;;;;;;;;5092855;28;20481;-59
2023/06/22 00:45:08;;;;;;;17.53;16.00;;;;;;;;;;5092815;28;20474;-59
2023/06/22 00:47:35;;;;;;;16.33;15.10;;;;;;;;;;5092606;28;20470;-59
2023/06/22 00:50:02;;;;;;;17.10;15.67;;;;;;;;;;5092588;28;20458;-59
2023/06/22 00:52:31;;;;;;;17.40;16.00;;;;;;;;;;5092840;28;20496;-59
2023/06/22 00:55:01;;;;;;;17.83;16.33;;;;;;;;;;5093018;28;20458;-59
2023/06/22 00:57:28;;;;;;;17.33;16.00;;;;;;;;;;5096137;28;20481;-59
2023/06/22 00:59:55;;;;;;;18.23;16.73;;;;;;;;;;5096333;28;20867;-59
2023/06/22 01:02:24;;;;;;;17.97;16.40;;;;;;;;;;5096289;28;20453;-59
2023/06/22 01:04:50;;;;;;;18.00;16.60;;;;;;;;;;5096182;28;20879;-59
2023/06/22 01:07:23;;;;;;;18.40;16.80;;;;;;;;;;5096246;28;20475;-59
2023/06/22 01:09:52;;;;;;;19.53;17.77;;;;;;;;;;5096295;28;20796;-59
2023/06/22 01:12:19;;;;;;;18.20;16.60;;;;;;;;;;5096136;28;20483;-59
2023/06/22 01:14:52;;;;;;;19.70;18.00;;;;;;;;;;5096061;28;20450;-59
2023/06/22 01:17:20;;;;;;;19.10;17.40;;;;;;;;;;5095952;28;20508;-59
2023/06/22 01:19:52;;;;;;;17.57;16.07;;;;;;;;;;5096161;28;20450;-59
2023/06/22 01:22:19;;;;;;;17.40;15.90;;;;;;;;;;5096170;28;20447;-59
2023/06/22 01:24:53;;;;;;;17.30;15.90;;;;;;;;;;5095998;28;20457;-59
2023/06/22 01:27:26;;;;;;;18.70;17.10;;;;;;;;;;5095797;28;20485;-59
2023/06/22 01:30:00;;;;;;;17.60;16.20;;;;;;;;;;5095767;28;20446;-60
2023/06/22 01:32:27;;;;;;;18.23;16.43;;;;;;;;;;5095664;28;20990;-59
2023/06/22 01:34:54;;;;;;;17.90;16.50;;;;;;;;;;5095819;28;20445;-59
2023/06/22 01:37:21;;;;;;;19.60;18.00;;;;;;;;;;5095784;28;20887;-59
2023/06/22 01:39:48;;;;;;;16.60;15.20;;;;;;;;;;5095580;28;20465;-59
2023/06/22 01:42:15;;;;;;;17.93;16.33;;;;;;;;;;5095515;28;20447;-59
2023/06/22 01:44:42;;;;;;;18.27;16.67;;;;;;;;;;5095638;28;20444;-59
2023/06/22 01:47:10;;;;;;;17.27;15.63;;;;;;;;;;5095455;28;20516;-59
2023/06/22 01:49:38;;;;;;;15.27;13.87;;;;;;;;;;5095487;28;20447;-59
2023/06/22 01:52:05;;;;;;;16.37;15.07;;;;;;;;;;5095379;28;20451;-59
2023/06/22 01:54:32;;;;;;;16.23;14.93;;;;;;;;;;5095244;28;20502;-60
2023/06/22 01:56:59;;;;;;;16.17;14.83;;;;;;;;;;5095300;28;20506;-59
2023/06/22 01:59:28;;;;;;;16.33;15.03;;;;;;;;;;5095369;28;20482;-60
2023/06/22 02:01:57;;;;;;;16.13;14.83;;;;;;;;;;5095292;28;20473;-59
2023/06/22 02:04:28;;;;;;;17.20;15.80;;;;;;;;;;5095173;28;20454;-59
2023/06/22 02:06:57;;;;;;;15.43;14.13;;;;;;;;;;5094623;28;20451;-59
2023/06/22 02:09:25;;;;;;;16.93;15.43;;;;;;;;;;5094919;28;20493;-59
2023/06/22 02:11:54;;;;;;;15.70;14.33;;;;;;;;;;5095092;28;20454;-59
2023/06/22 02:14:22;;;;;;;17.67;15.80;;;;;;;;;;5094816;28;20938;-59
2023/06/22 02:16:49;;;;;;;17.87;16.17;;;;;;;;;;5094762;28;20542;-59
2023/06/22 02:19:18;;;;;;;16.27;15.07;;;;;;;;;;5094846;28;20790;-59
2023/06/22 02:21:46;;;;;;;17.70;16.10;;;;;;;;;;5094632;28;20454;-59
2023/06/22 02:24:13;;;;;;;16.30;14.80;;;;;;;;;;5094892;28;20479;-59
2023/06/22 02:26:42;;;;;;;18.40;16.70;;;;;;;;;;5094798;28;20443;-59
2023/06/22 02:29:09;;;;;;;18.40;16.33;;;;;;;;;;5094657;28;20490;-59
2023/06/22 02:31:36;;;;;;;16.00;14.60;;;;;;;;;;5094653;28;20447;-59
2023/06/22 02:34:02;;;;;;;16.20;14.90;;;;;;;;;;5094415;28;20965;-59
2023/06/22 02:36:30;;;;;;;17.63;16.20;;;;;;;;;;5094353;28;20540;-59
2023/06/22 02:39:00;;;;;;;15.23;14.03;;;;;;;;;;5094619;28;20447;-59
2023/06/22 02:41:27;;;;;;;16.93;15.20;;;;;;;;;;5094591;28;20447;-59
2023/06/22 02:43:54;;;;;;;18.10;16.60;;;;;;;;;;5094411;28;20508;-59
2023/06/22 02:46:22;;;;;;;19.00;17.30;;;;;;;;;;5094156;28;20969;-59
2023/06/22 02:48:48;;;;;;;16.43;15.20;;;;;;;;;;5094052;28;20561;-59
2023/06/22 02:51:15;;;;;;;17.50;16.10;;;;;;;;;;5094399;28;20457;-59
2023/06/22 02:53:44;;;;;;;15.53;14.33;;;;;;;;;;5094243;28;20475;-59
2023/06/22 02:56:12;;;;;;;15.83;14.57;;;;;;;;;;5093944;28;20471;-59
2023/06/22 02:58:39;;;;;;;17.00;15.50;;;;;;;;;;5094097;28;20451;-59
2023/06/22 03:01:06;;;;;;;17.03;15.73;;;;;;;;;;5093893;28;20447;-59
2023/06/22 03:03:33;;;;;;;18.30;16.43;;;;;;;;;;5093846;28;20486;-59
2023/06/22 03:06:01;;;;;;;18.27;16.67;;;;;;;;;;5093990;28;20442;-59
2023/06/22 03:08:28;;;;;;;17.43;15.90;;;;;;;;;;5093847;28;20478;-60
2023/06/22 03:10:55;;;;;;;18.20;16.67;;;;;;;;;;5093744;28;20454;-59
2023/06/22 03:13:24;;;;;;;17.50;15.93;;;;;;;;;;5093738;28;20447;-59
2023/06/22 03:15:51;;;;;;;18.17;16.57;;;;;;;;;;5093617;28;20805;-59
2023/06/22 03:18:18;;;;;;;18.40;16.80;;;;;;;;;;5092858;28;20473;-59
2023/06/22 03:20:45;;;;;;;19.03;17.33;;;;;;;;;;5093745;28;20447;-59
2023/06/22 03:23:12;;;;;;;18.50;16.90;;;;;;;;;;5093690;28;20439;-59
2023/06/22 03:25:38;;;;;;;18.80;17.17;;;;;;;;;;5093661;28;20537;-59
2023/06/22 03:28:05;;;;;;;18.60;16.83;;;;;;;;;;5093435;28;20473;-59
2023/06/22 03:30:33;;;;;;;18.60;16.83;;;;;;;;;;5093387;28;20456;-59
2023/06/22 03:33:00;;;;;;;18.33;16.93;;;;;;;;;;5093520;28;20454;-59
2023/06/22 03:35:27;;;;;;;18.53;17.03;;;;;;;;;;5093564;28;20447;-59
2023/06/22 03:37:55;;;;;;;17.77;16.27;;;;;;;;;;5093327;28;20451;-59
2023/06/22 03:40:22;;;;;;;20.10;18.40;;;;;;;;;;5093282;28;20488;-59
2023/06/22 03:42:49;;;;;;;20.20;18.30;;;;;;;;;;5093229;28;21008;-59
2023/06/22 03:45:15;;;;;;;19.03;17.37;;;;;;;;;;5093114;28;20451;-59
2023/06/22 03:47:44;;;;;;;19.90;18.20;;;;;;;;;;5093198;28;20454;-59
2023/06/22 03:50:11;;;;;;;16.30;15.00;;;;;;;;;;5093319;28;20449;-59
2023/06/22 03:52:38;;;;;;;18.73;16.67;;;;;;;;;;5093192;28;20443;-59
2023/06/22 03:55:05;;;;;;;18.83;17.33;;;;;;;;;;5093109;28;20486;-59
2023/06/22 03:57:32;;;;;;;19.33;17.57;;;;;;;;;;5092795;28;20509;-59
2023/06/22 03:59:59;;;;;;;18.20;16.70;;;;;;;;;;5092950;28;20450;-59
2023/06/22 04:02:26;;;;;;;17.10;15.70;;;;;;;;;;5093176;28;20511;-60
2023/06/22 04:04:54;;;;;;;16.40;15.10;;;;;;;;;;5093136;28;20859;-59
2023/06/22 04:07:21;;;;;;;17.40;15.80;;;;;;;;;;5092949;28;20485;-60
2023/06/22 04:09:48;;;;;;;16.27;14.83;;;;;;;;;;5092886;28;20514;-59
2023/06/22 04:12:15;;;;;;;16.17;14.73;;;;;;;;;;5092842;28;20453;-59
2023/06/22 04:14:42;;;;;;;18.03;16.00;;;;;;;;;;5093111;28;20779;-60
2023/06/22 04:17:09;;;;;;;14.10;12.80;;;;;;;;;;5093004;28;20450;-60
2023/06/22 04:19:36;;;;;;;16.10;14.80;;;;;;;;;;5092948;28;20504;-60
2023/06/22 04:22:06;;;;;;;15.27;14.00;;;;;;;;;;5093239;28;20449;-60
2023/06/22 04:24:33;;;;;;;16.33;14.93;;;;;;;;;;5092809;28;20502;-60
2023/06/22 04:27:02;;;;;;;13.40;12.20;;;;;;;;;;5092651;28;20453;-60
2023/06/22 04:29:31;;;;;;;14.27;12.93;;;;;;;;;;5094113;28;20479;-60
2023/06/22 04:32:02;;;;;;;14.83;13.53;;;;;;;;;;5097000;28;20469;-60
2023/06/22 04:34:29;;;;;;;14.10;12.87;;;;;;;;;;5096847;28;20465;-59
2023/06/22 04:36:56;;;;;;;13.03;11.83;;;;;;;;;;5096717;28;20541;-60
2023/06/22 04:39:26;;;;;;;13.67;12.47;;;;;;;;;;5096626;28;20449;-60
2023/06/22 04:41:54;;;;;;;12.80;11.70;;;;;;;;;;5096792;28;20459;-59
2023/06/22 04:44:24;;;;;;;11.73;10.67;;;;;;;;;;5096676;28;20458;-60
2023/06/22 04:46:53;;;;;;;12.17;11.17;;;;;;;;;;5096635;28;20811;-60
2023/06/22 04:49:21;;;;;;;13.00;11.70;;;;;;;;;;5096477;28;20478;-60
2023/06/22 04:51:49;;;;;;;10.83;9.93;;;;;;;;;;5096329;28;20459;-60
2023/06/22 04:54:15;;;;;;;11.40;10.40;;;;;;;;;;5096570;28;20478;-60
2023/06/22 04:56:46;;;;;;;12.03;10.93;;;;;;;;;;5096227;28;20475;-60
2023/06/22 04:59:13;;;;;;;12.63;10.83;;;;;;;;;;5096429;28;20502;-59
2023/06/22 05:01:40;;;;;;;10.67;9.77;;;;;;;;;;5096264;28;20447;-60
2023/06/22 05:04:07;;;;;;;10.73;9.80;;;;;;;;;;5096246;28;20550;-60
2023/06/22 05:06:34;;;;;;;11.57;10.57;;;;;;;;;;5095991;28;21007;-60
2023/06/22 05:09:03;;;;;;;12.23;10.70;;;;;;;;;;5096061;28;21005;-60
2023/06/22 05:11:30;;;;;;;10.37;9.50;;;;;;;;;;5096081;28;21022;-59
2023/06/22 05:13:58;;;;;;;10.50;9.70;;;;;;;;;;5096072;28;20546;-60
2023/06/22 05:16:25;;;;;;;9.80;9.10;;;;;;;;;;5095880;28;20453;-60
2023/06/22 05:18:53;;;;;;;9.57;8.77;;;;;;;;;;5095819;28;20551;-60
2023/06/22 05:21:21;;;;;;;10.73;9.53;;;;;;;;;;5096049;28;20817;-60
2023/06/22 05:23:48;;;;;;;9.43;8.83;;;;;;;;;;5095968;28;20453;-60
2023/06/22 05:26:15;;;;;;;9.13;8.27;;;;;;;;;;5095810;28;20447;-60
2023/06/22 05:28:45;;;;;;;9.47;8.57;;;;;;;;;;5095550;28;20471;-59
2023/06/22 05:31:14;;;;;;;8.80;8.10;;;;;;;;;;5095679;28;20763;-60
2023/06/22 05:33:41;;;;;;;9.00;8.20;;;;;;;;;;5096092;28;20454;-60
2023/06/22 05:36:08;;;;;;;12.23;8.93;;;;;;;;;;5095678;28;20470;-60
2023/06/22 05:38:35;;;;;;;8.60;7.90;;;;;;;;;;5095669;28;20473;-60
2023/06/22 05:41:02;;;;;;;9.13;8.43;;;;;;;;;;5094611;28;20447;-60
2023/06/22 05:43:29;;;;;;;8.60;7.97;;;;;;;;;;5095481;28;20455;-60
2023/06/22 05:45:56;;;;;;;9.07;8.27;;;;;;;;;;5095351;28;20453;-60
2023/06/22 05:48:24;;;;;;;8.83;8.23;;;;;;;;;;5095443;28;20443;-60
2023/06/22 05:50:51;;;;;;;9.30;8.60;;;;;;;;;;5095359;28;20447;-60
2023/06/22 05:53:18;;;;;;;7.60;7.00;;;;;;;;;;5095343;28;20537;-59
2023/06/22 05:55:45;;;;;;;9.30;7.70;;;;;;;;;;5095110;28;20477;-60
2023/06/22 05:58:13;;;;;;;8.43;7.73;;;;;;;;;;5095237;28;20817;-60
2023/06/22 06:00:40;;;;;;;8.00;7.10;;;;;;;;;;5095031;28;20926;-59
2023/06/22 06:03:07;;;;;;;7.80;7.17;;;;;;;;;;5095241;28;20470;-60
2023/06/22 06:05:35;;;;;;;7.60;7.00;;;;;;;;;;5095089;28;20483;-60
2023/06/22 06:08:04;;;;;;;8.93;7.07;;;;;;;;;;5095106;28;20557;-60
2023/06/22 06:10:32;;;;;;;8.50;7.90;;;;;;;;;;5094937;28;20514;-60
2023/06/22 06:12:58;;;;;;;7.80;7.10;;;;;;;;;;5094919;28;20439;-60
2023/06/22 06:15:25;;;;;;;7.60;7.00;;;;;;;;;;5094805;28;20960;-60
2023/06/22 06:17:53;;;;;;;7.10;6.60;;;;;;;;;;5094945;28;20443;-60
2023/06/22 06:20:21;;;;;;;7.20;6.60;;;;;;;;;;5094869;28;20542;-60
2023/06/22 06:22:49;;;;;;;8.27;7.47;;;;;;;;;;5094817;28;20788;-59
2023/06/22 06:25:16;;;;;;;7.00;6.40;;;;;;;;;;5094622;28;20457;-60
2023/06/22 06:27:44;;;;;;;6.50;6.10;;;;;;;;;;5094330;28;20447;-60
2023/06/22 06:30:11;;;;;;;6.53;5.80;;;;;;;;;;5094459;28;21028;-60
2023/06/22 06:32:39;;;;;;;5.57;5.07;;;;;;;;;;5094612;28;20460;-60
2023/06/22 06:35:06;;;;;;;5.37;4.83;;;;;;;;;;5094552;28;20546;-60
2023/06/22 06:37:33;;;;;;;6.07;5.50;;;;;;;;;;5094481;28;20534;-60
2023/06/22 06:40:02;;;;;;;5.37;4.87;;;;;;;;;;5094381;28;20888;-60
2023/06/22 06:42:29;;;;;;;5.10;4.70;;;;;;;;;;5094461;28;20443;-60
2023/06/22 06:44:56;;;;;;;5.77;5.17;;;;;;;;;;5094472;28;20449;-60
2023/06/22 06:47:23;;;;;;;4.90;4.60;;;;;;;;;;5094259;28;20814;-60
2023/06/22 06:49:50;;;;;;;5.40;4.63;;;;;;;;;;5094157;28;20510;-60
2023/06/22 06:52:17;;;;;;;4.30;4.00;;;;;;;;;;5094106;28;20447;-60
2023/06/22 06:54:44;;;;;;;4.23;3.93;;;;;;;;;;5093955;28;20945;-60
2023/06/22 06:57:13;;;;;;;3.83;3.60;;;;;;;;;;5093902;28;20479;-60
2023/06/22 06:59:40;;;;;;;4.87;4.47;;;;;;;;;;5094060;28;20806;-59
2023/06/22 07:02:07;;;;;;;5.90;4.23;;;;;;;;;;5094017;28;20451;-60
2023/06/22 07:04:34;;;;;;;4.30;4.00;;;;;;;;;;5093930;28;20451;-60
2023/06/22 07:07:03;;;;;;;4.80;4.50;;;;;;;;;;5093674;28;20542;-59
2023/06/22 07:09:29;;;;;;;4.73;4.43;;;;;;;;;;5087969;28;20837;-60
2023/06/22 07:11:56;;;;;;;4.87;4.37;;;;;;;;;;5093718;28;20439;-60
2023/06/22 07:14:24;;;;;;;5.13;4.63;;;;;;;;;;5093683;28;20443;-60
2023/06/22 07:16:51;;;;;;;4.63;3.90;;;;;;;;;;5093510;28;20522;-59
2023/06/22 07:19:25;;;;;;;5.17;4.73;;;;;;;;;;5093620;28;20450;-60
2023/06/22 07:21:52;;;;;;;5.20;4.80;;;;;;;;;;5093499;28;20447;-60
2023/06/22 07:24:20;;;;;;;4.73;3.77;;;;;;;;;;5093773;28;20518;-60
2023/06/22 07:26:48;;;;;;;4.50;4.10;;;;;;;;;;5093422;28;21033;-60
2023/06/22 07:29:15;;;;;;;4.80;4.50;;;;;;;;;;5093435;28;20833;-60
2023/06/22 07:31:43;;;;;;;4.60;4.20;;;;;;;;;;5093494;28;20454;-60
2023/06/22 07:34:10;;;;;;;4.90;4.50;;;;;;;;;;5093314;28;20802;-60
2023/06/22 07:36:37;;;;;;;8.50;4.70;;;;;;;;;;5093193;28;20453;-60
2023/06/22 07:39:04;;;;;;;4.50;4.20;;;;;;;;;;5093419;28;20806;-60
2023/06/22 07:41:31;;;;;;;4.53;4.10;;;;;;;;;;5093438;28;20540;-60
2023/06/22 07:43:58;;;;;;;5.40;4.20;;;;;;;;;;5093259;28;20446;-59
2023/06/22 07:46:25;;;;;;;4.20;3.80;;;;;;;;;;5093121;28;20532;-60
2023/06/22 07:48:53;;;;;;;3.53;3.33;;;;;;;;;;5092959;28;20542;-60
2023/06/22 07:51:20;;;;;;;4.47;3.50;;;;;;;;;;5093042;28;20934;-60
2023/06/22 07:53:47;;;;;;;3.80;3.40;;;;;;;;;;5093229;28;20451;-60
2023/06/22 07:56:18;;;;;;;3.70;3.40;;;;;;;;;;5092973;28;20476;-60
2023/06/22 07:58:45;;;;;;;3.77;3.40;;;;;;;;;;5093009;28;20882;-59
2023/06/22 08:01:12;;;;;;;3.90;3.60;;;;;;;;;;5092994;28;20447;-61
2023/06/22 08:03:40;;;;;;;3.13;2.97;;;;;;;;;;5092469;28;20439;-60
2023/06/22 08:06:09;;;;;;;4.03;3.70;;;;;;;;;;5092786;28;20530;-60
2023/06/22 08:08:36;;;;;;;4.10;3.80;;;;;;;;;;5092948;28;20842;-60
2023/06/22 08:11:03;;;;;;;4.10;3.70;;;;;;;;;;5092464;28;20510;-60
2023/06/22 08:13:30;;;;;;;3.57;3.27;;;;;;;;;;5092883;28;20443;-60
2023/06/22 08:15:57;;;;;;;4.30;3.20;;;;;;;;;;5092635;28;20953;-60
2023/06/22 08:18:24;;;;;;;3.73;3.40;;;;;;;;;;5092998;28;20532;-59
2023/06/22 08:20:51;;;;;;;3.83;2.80;;;;;;;;;;5092957;28;20457;-60
2023/06/22 08:23:19;;;;;;;4.13;2.83;;;;;;;;;;5092682;28;20447;-60
2023/06/22 08:25:46;;;;;;;3.60;3.33;;;;;;;;;;5092702;28;20461;-60
2023/06/22 08:28:13;;;;;;;4.90;2.83;;;;;;;;;;5092743;28;20450;-60
2023/06/22 08:30:40;;;;;;;2.60;2.40;;;;;;;;;;5092429;28;20826;-59
2023/06/22 08:33:07;;;;;;;3.03;2.80;;;;;;;;;;5092543;28;20451;-58
2023/06/22 08:35:34;;;;;;;3.17;2.97;;;;;;;;;;5092734;28;20451;-58
2023/06/22 08:38:02;;;;;;;2.90;2.80;;;;;;;;;;5092629;28;20454;-59
2023/06/22 08:40:30;;;;;;;2.60;2.50;;;;;;;;;;5092553;28;20946;-58
2023/06/22 08:42:57;;;;;;;2.87;2.67;;;;;;;;;;5092538;28;20516;-62
2023/06/22 08:45:24;;;;;;;3.20;2.90;;;;;;;;;;5092529;28;20443;-62
2023/06/22 08:47:51;;;;;;;2.60;2.40;;;;;;;;;;5092438;28;20490;-62
2023/06/22 08:50:18;;;;;;;3.23;3.03;;;;;;;;;;5092566;28;20489;-61
2023/06/22 08:52:45;;;;;;;3.03;2.70;;;;;;;;;;5092472;28;20534;-62
2023/06/22 08:55:12;;;;;;;4.60;3.23;;;;;;;;;;5092492;28;20451;-62
2023/06/22 08:57:41;;;;;;;3.20;3.00;;;;;;;;;;5092051;28;20563;-59
2023/06/22 09:00:17;;;;;;;3.47;3.17;;;;;;;;;;5092462;28;20451;-59
2023/06/22 09:02:43;;;;;;;3.10;2.87;;;;;;;;;;5092485;28;20496;-58
2023/06/22 09:05:11;;;;;;;3.07;2.77;;;;;;;;;;5092434;28;20450;-58
2023/06/22 09:07:38;;;;;;;2.83;2.63;;;;;;;;;;5092053;28;20453;-58
2023/06/22 09:10:05;;;;;;;2.80;2.60;;;;;;;;;;5092050;28;20597;-57
2023/06/22 09:12:32;;;;;;;3.30;3.10;;;;;;;;;;5092323;28;20447;-58
2023/06/22 09:15:01;;;;;;;5.10;2.40;;;;;;;;;;5092259;28;20451;-59
2023/06/22 09:17:27;;;;;;;3.23;2.67;;;;;;;;;;5094838;28;20461;-58
2023/06/22 09:19:54;;;;;;;2.93;2.10;;;;;;;;;;5095785;28;20474;-58
2023/06/22 09:22:21;;;;;;;3.30;2.47;;;;;;;;;;5095765;28;20949;-59
2023/06/22 09:24:48;;;;;;;2.63;2.53;;;;;;;;;;5095668;28;20446;-61
2023/06/22 09:27:15;;;;;;;3.13;2.83;;;;;;;;;;5095772;28;20856;-62
2023/06/22 09:29:42;;;;;;;2.00;1.90;;;;;;;;;;5095795;28;20474;-59
2023/06/22 09:32:10;;;;;;;2.63;2.43;;;;;;;;;;5095563;28;20457;-59
2023/06/22 09:34:37;;;;;;;2.50;2.30;;;;;;;;;;5095681;28;20451;-59
2023/06/22 09:37:04;;;;;;;3.80;2.70;;;;;;;;;;5095307;28;20475;-59
2023/06/22 09:39:31;;;;;;;2.37;2.10;;;;;;;;;;5095332;28;20486;-60
2023/06/22 09:41:59;;;;;;;2.27;2.17;;;;;;;;;;5095235;28;20458;-61
2023/06/22 09:44:26;;;;;;;2.73;2.40;;;;;;;;;;5095343;28;20439;-59
2023/06/22 09:46:53;;;;;;;2.60;2.40;;;;;;;;;;5095327;28;20526;-59
2023/06/22 09:49:21;;;;;;;3.20;3.00;;;;;;;;;;5095156;28;20449;-61
2023/06/22 09:51:49;;;;;;;2.43;2.23;;;;;;;;;;5095064;28;20482;-59
2023/06/22 09:54:16;;;;;;;3.43;2.63;;;;;;;;;;5095333;28;20451;-59
2023/06/22 09:56:43;;;;;;;3.20;2.90;;;;;;;;;;5094943;28;21112;-57
2023/06/22 09:59:10;;;;;;;2.47;2.27;;;;;;;;;;5094973;28;20534;-57
2023/06/22 10:01:37;;;;;;;3.03;2.67;;;;;;;;;;5094879;28;20814;-58
2023/06/22 10:04:04;;;;;;;2.47;2.27;;;;;;;;;;5094984;28;20447;-58
2023/06/22 10:06:32;;;;;;;2.60;2.40;;;;;;;;;;5094728;28;20447;-59
2023/06/22 10:08:59;;;;;;;2.50;2.30;;;;;;;;;;5095003;28;20454;-58
2023/06/22 10:11:30;;;;;;;3.87;2.80;;;;;;;;;;5094960;28;20915;-59
2023/06/22 10:13:57;;;;;;;3.53;2.83;;;;;;;;;;5095032;28;20922;-60
2023/06/22 10:16:26;;;;;;;3.20;3.00;;;;;;;;;;5094430;28;20443;-60
2023/06/22 10:18:53;;;;;;;3.30;3.00;;;;;;;;;;5094621;28;20450;-61
2023/06/22 10:21:20;;;;;;;5.17;3.30;;;;;;;;;;5094901;28;20801;-60
2023/06/22 10:23:48;;;;;;;2.70;2.50;;;;;;;;;;5094826;28;20442;-60
2023/06/22 10:26:15;;;;;;;2.83;2.50;;;;;;;;;;5094389;28;20957;-59
2023/06/22 10:28:42;;;;;;;2.93;2.50;;;;;;;;;;5094178;28;20534;-60
2023/06/22 10:31:09;;;;;;;2.73;2.53;;;;;;;;;;5094197;28;20978;-60
2023/06/22 10:33:36;;;;;;;3.17;2.50;;;;;;;;;;5094422;28;20479;-60
2023/06/22 10:36:03;;;;;;;3.10;2.83;;;;;;;;;;5094514;28;20482;-61
2023/06/22 10:38:29;;;;;;;3.47;3.20;;;;;;;;;;5094498;28;20451;-59
2023/06/22 10:40:58;;;;;;;2.77;2.60;;;;;;;;;;5094387;28;20538;-60
2023/06/22 10:43:25;;;;;;;3.40;2.97;;;;;;;;;;5094117;28;20446;-60
2023/06/22 10:45:51;;;;;;;4.00;2.80;;;;;;;;;;5094064;28;20479;-61
2023/06/22 10:48:18;;;;;;;5.33;2.60;;;;;;;;;;5094205;28;20457;-60
2023/06/22 10:50:45;;;;;;;2.80;2.60;;;;;;;;;;5094130;28;20585;-60
2023/06/22 10:53:12;;;;;;;3.30;2.63;;;;;;;;;;5094096;28;20453;-60
2023/06/22 10:55:39;;;;;;;2.40;2.27;;;;;;;;;;5093848;28;20451;-61
2023/06/22 10:58:07;;;;;;;3.23;3.03;;;;;;;;;;5093991;28;20450;-59
2023/06/22 11:00:34;;;;;;;3.20;3.00;;;;;;;;;;5093829;28;20537;-59
2023/06/22 11:03:01;;;;;;;3.20;3.00;;;;;;;;;;5093913;28;20443;-59
2023/06/22 11:05:28;;;;;;;2.90;2.70;;;;;;;;;;5093662;28;20537;-59
2023/06/22 11:07:55;;;;;;;5.40;3.60;;;;;;;;;;5093453;28;20438;-61
2023/06/22 11:10:22;;;;;;;2.73;2.63;;;;;;;;;;5093616;28;20569;-59
2023/06/22 11:12:48;;;;;;;3.17;2.97;;;;;;;;;;5093546;28;20946;-62
2023/06/22 11:15:17;;;;;;;3.33;3.13;;;;;;;;;;5093518;28;20549;-60
2023/06/22 11:17:44;;;;;;;3.03;2.80;;;;;;;;;;5093580;28;20447;-59
2023/06/22 11:20:11;;;;;;;3.03;2.80;;;;;;;;;;5093660;28;21121;-60
2023/06/22 11:22:39;;;;;;;2.57;2.47;;;;;;;;;;5093463;28;20466;-60
2023/06/22 11:25:06;;;;;;;3.10;2.60;;;;;;;;;;5093597;28;20457;-58
2023/06/22 11:27:33;;;;;;;3.10;2.73;;;;;;;;;;5093240;28;20447;-58
2023/06/22 11:30:00;;;;;;;2.93;2.63;;;;;;;;;;5093276;28;20450;-60
2023/06/22 11:32:28;;;;;;;3.00;2.80;;;;;;;;;;5093413;28;20451;-58
2023/06/22 11:34:55;;;;;;;3.27;3.07;;;;;;;;;;5093343;28;20485;-58
2023/06/22 11:37:22;;;;;;;3.40;3.20;;;;;;;;;;5093246;28;20447;-58
2023/06/22 11:39:49;;;;;;;3.10;2.90;;;;;;;;;;5092370;28;20859;-57
2023/06/22 11:42:16;;;;;;;3.63;3.33;;;;;;;;;;5093068;28;20454;-58
2023/06/22 11:44:43;;;;;;;3.30;3.10;;;;;;;;;;5093265;28;20806;-58
2023/06/22 11:47:10;;;;;;;3.17;2.90;;;;;;;;;;5093162;28;20447;-59
2023/06/22 11:49:39;;;;;;;3.00;2.77;;;;;;;;;;5093117;28;20451;-61
2023/06/22 11:52:06;;;;;;;3.20;3.00;;;;;;;;;;5092773;28;20581;-57
2023/06/22 11:54:33;;;;;;;3.77;3.47;;;;;;;;;;5092655;28;20449;-61
2023/06/22 11:57:00;;;;;;;3.57;3.37;;;;;;;;;;5092660;28;20541;-59
2023/06/22 11:59:28;;;;;;;3.63;3.43;;;;;;;;;;5092985;28;20462;-60
2023/06/22 12:01:55;;;;;;;4.00;3.67;;;;;;;;;;5092858;28;20957;-60
2023/06/22 12:04:22;;;;;;;3.37;3.17;;;;;;;;;;5092733;28;20473;-58
2023/06/22 12:06:50;;;;;;;4.13;2.83;;;;;;;;;;5092490;28;20450;-58
2023/06/22 12:09:17;;;;;;;3.23;3.10;;;;;;;;;;5092834;28;20450;-60
2023/06/22 12:11:44;;;;;;;3.83;2.97;;;;;;;;;;5092993;28;20514;-59
2023/06/22 12:14:11;;;;;;;3.70;3.43;;;;;;;;;;5092928;28;20557;-59
2023/06/22 12:16:38;;;;;;;5.90;3.77;;;;;;;;;;5092520;28;20447;-60
2023/06/22 12:19:05;;;;;;;5.80;3.37;;;;;;;;;;5092711;28;20443;-58
2023/06/22 12:21:32;;;;;;;3.10;2.90;;;;;;;;;;5092646;28;20444;-60
2023/06/22 12:24:00;;;;;;;3.30;3.10;;;;;;;;;;5092272;28;20539;-60
2023/06/22 12:26:27;;;;;;;4.10;3.80;;;;;;;;;;5092620;28;20867;-61
2023/06/22 12:28:54;;;;;;;4.37;3.97;;;;;;;;;;5092655;28;20453;-58
2023/06/22 12:31:21;;;;;;;4.17;3.87;;;;;;;;;;5092514;28;20474;-59
2023/06/22 12:33:48;;;;;;;4.10;3.77;;;;;;;;;;5092596;28;20482;-59
2023/06/22 12:36:16;;;;;;;3.70;3.50;;;;;;;;;;5092454;28;20938;-60
2023/06/22 12:38:43;;;;;;;3.10;2.90;;;;;;;;;;5092376;28;20846;-60
2023/06/22 12:41:11;;;;;;;4.27;3.97;;;;;;;;;;5092549;28;20453;-59
2023/06/22 12:43:38;;;;;;;3.37;3.17;;;;;;;;;;5092524;28;20447;-59
2023/06/22 12:46:05;;;;;;;3.40;3.20;;;;;;;;;;5092166;28;20443;-60
2023/06/22 12:48:31;;;;;;;4.20;4.00;;;;;;;;;;5092434;28;20541;-60
2023/06/22 12:50:58;;;;;;;4.00;3.80;;;;;;;;;;5094283;28;20468;-60
2023/06/22 12:53:27;;;;;;;4.13;3.93;;;;;;;;;;5096257;28;20881;-60
2023/06/22 12:55:54;;;;;;;4.60;4.27;;;;;;;;;;5095950;28;20466;-60
2023/06/22 12:58:22;;;;;;;3.77;3.57;;;;;;;;;;5095894;28;20457;-60
2023/06/22 13:00:49;;;;;;;3.80;3.60;;;;;;;;;;5091570;28;20446;-61
2023/06/22 13:03:16;;;;;;;3.93;3.73;;;;;;;;;;5095882;28;20798;-59
2023/06/22 13:05:43;;;;;;;4.20;3.90;;;;;;;;;;5096080;28;20442;-58
2023/06/22 13:08:10;;;;;;;3.73;3.43;;;;;;;;;;5096298;28;20446;-58
2023/06/22 13:10:37;;;;;;;4.57;4.27;;;;;;;;;;5095491;28;20455;-59
2023/06/22 13:13:04;;;;;;;3.70;3.50;;;;;;;;;;5095693;28;20449;-59
2023/06/22 13:15:32;;;;;;;4.10;3.80;;;;;;;;;;5096027;28;20453;-59
2023/06/22 13:18:00;;;;;;;4.40;4.00;;;;;;;;;;5095767;28;20449;-60
2023/06/22 13:20:27;;;;;;;3.70;3.40;;;;;;;;;;5095791;28;20450;-59
2023/06/22 13:22:56;;;;;;;4.83;4.53;;;;;;;;;;5095524;28;20810;-59
2023/06/22 13:25:26;;;;;;;6.33;4.33;;;;;;;;;;5095969;28;20860;-59
2023/06/22 13:27:53;;;;;;;3.67;3.47;;;;;;;;;;5095608;28;20535;-59
2023/06/22 13:30:19;;;;;;;4.47;4.17;;;;;;;;;;5095727;28;20795;-59
2023/06/22 13:32:48;;;;;;;4.10;3.80;;;;;;;;;;5095668;28;20490;-59
2023/06/22 13:35:15;;;;;;;4.43;4.13;;;;;;;;;;5095928;28;20445;-59
2023/06/22 13:37:41;;;;;;;4.60;4.20;;;;;;;;;;5095338;28;20956;-59
2023/06/22 13:40:09;;;;;;;3.93;3.73;;;;;;;;;;5095628;28;20469;-59
2023/06/22 13:42:36;;;;;;;4.70;4.40;;;;;;;;;;5095524;28;20453;-60
2023/06/22 13:45:03;;;;;;;6.80;4.27;;;;;;;;;;5095468;28;20447;-60
2023/06/22 13:47:30;;;;;;;4.30;4.10;;;;;;;;;;5095625;28;20450;-59
2023/06/22 13:49:59;;;;;;;5.20;4.70;;;;;;;;;;5095595;28;20447;-60
2023/06/22 13:52:25;;;;;;;4.10;3.80;;;;;;;;;;5095428;28;20838;-59
2023/06/22 13:54:52;;;;;;;4.03;3.83;;;;;;;;;;5095020;28;20458;-59
2023/06/22 13:57:19;;;;;;;4.43;4.13;;;;;;;;;;5094935;28;20821;-59
2023/06/22 13:59:46;;;;;;;4.43;4.13;;;;;;;;;;5095135;28;20447;-59
2023/06/22 14:02:13;;;;;;;4.10;3.83;;;;;;;;;;5094685;28;20891;-59
2023/06/22 14:04:40;;;;;;;5.20;4.80;;;;;;;;;;5094892;28;21031;-59
2023/06/22 14:07:08;;;;;;;4.97;4.67;;;;;;;;;;5095076;28;20558;-59
2023/06/22 14:09:35;;;;;;;4.40;4.07;;;;;;;;;;5095156;28;20451;-59
2023/06/22 14:12:04;;;;;;;4.60;4.30;;;;;;;;;;5094872;28;20481;-59
2023/06/22 14:14:31;;;;;;;4.07;3.87;;;;;;;;;;5095047;28;20531;-59
2023/06/22 14:16:58;;;;;;;4.90;4.60;;;;;;;;;;5095027;28;20537;-59
2023/06/22 14:19:25;;;;;;;4.43;4.23;;;;;;;;;;5094845;28;20977;-59
2023/06/22 14:21:52;;;;;;;7.20;4.73;;;;;;;;;;5094840;28;20455;-59
2023/06/22 14:24:20;;;;;;;4.67;4.37;;;;;;;;;;5094750;28;20882;-59
2023/06/22 14:26:47;;;;;;;4.27;4.07;;;;;;;;;;5094550;28;20483;-60
2023/06/22 14:29:14;;;;;;;4.70;4.30;;;;;;;;;;5094779;28;20538;-60
2023/06/22 14:31:41;;;;;;;4.77;4.43;;;;;;;;;;5094584;28;20477;-60
2023/06/22 14:34:07;;;;;;;4.80;4.50;;;;;;;;;;5094661;28;20802;-60